Flight Track Log - Related Links

Times and Time Zones

All times are in EST time to prevent confusion due to time zone crossing. See the N884FT flight status page for this flight to view local times or setup timezone preferences in your user account.


Time Position Orientation Groundspeed Altitude Reporting Facility
EST Latitude Longitude Course Direction KTS MPH feet Rate Location/Type
Mon 11:08:00 PM 26.6162 -80.1808 345° North  Level Estimated
Mon 11:09:00 PM 26.6558 -80.1930 345° North  Level Estimated
Mon 11:10:00 PM 26.6954 -80.2052 345° North  Level Estimated
Mon 11:11:00 PM 26.7350 -80.2175 345° North  Level Estimated
Mon 11:12:00 PM 26.7747 -80.2297 345° North  Level Estimated
Mon 11:13:00 PM 26.8143 -80.2419 345° North  Level Estimated
Mon 11:14:00 PM 26.8539 -80.2542 345° North  Level Estimated
Mon 11:15:00 PM 26.8935 -80.2664 345° North  Level Estimated
Mon 11:16:00 PM 26.9331 -80.2787 345° North  Level Estimated
Mon 11:17:00 PM 26.9727 -80.2910 345° North  Level Estimated
Mon 11:18:00 PM 27.0123 -80.3033 345° North  Level Estimated
Mon 11:18:12 PM 26.9364 -80.2794 339° North 146 168 5,000  Level Miami Center
Mon 11:19:00 PM 27.0519 -80.3156 345° North  Level Estimated
Mon 11:19:13 PM 26.9694 -80.2922 341° North 146 168 5,000  Level Miami Center
Mon 11:20:00 PM 27.0915 -80.3279 345° North  Level Estimated
Mon 11:20:15 PM 27.0086 -80.3097 338° Northwest 152 175 5,000  Level Miami Center
Mon 11:21:00 PM 27.1311 -80.3402 345° North  Level Estimated
Mon 11:21:12 PM 27.0500 -80.3272 339° North 144 166 5,000  Level Miami Center
Mon 11:22:12 PM 27.0894 -80.3422 341° North 144 166 5,000  Level Miami Center
Mon 11:23:15 PM 27.1286 -80.3575 341° North 144 166 5,000  Level Miami Center
Mon 11:24:14 PM 27.1639 -80.3725 339° North 149 171 5,000  Level Miami Center
Mon 11:25:13 PM 27.2050 -80.3900 339° North 149 171 5,000  Level Miami Center
Mon 11:26:13 PM 27.2422 -80.4053 340° North 149 171 5,000  Level Miami Center
Mon 11:27:12 PM 27.2794 -80.4206 340° North 149 171 5,000  Level Miami Center
Mon 11:28:15 PM 27.3147 -80.4333 342° North 149 171 5,000  Level Miami Center
Mon 11:29:12 PM 27.3539 -80.4486 341° North 149 171 5,000  Level Miami Center
Mon 11:30:14 PM 27.3997 -80.4592 348° North 149 171 5,000  Level Miami Center
Mon 11:31:14 PM 27.4392 -80.4628 355° North 144 166 5,000  Level Miami Center
Mon 11:32:12 PM 27.4808 -80.4664 356° North 144 166 5,000  Level Miami Center
Mon 11:33:13 PM 27.5206 -80.4725 352° North 144 166 5,000 -150 Level Miami Center
Mon 11:34:12 PM 27.5664 -80.4714 North 144 166 4,700 -403 Descending Miami Center
Mon 11:35:12 PM 27.6125 -80.4658 North 155 178 4,200 -446 Descending Miami Center
Mon 11:36:13 PM 27.6606 -80.4581 North 162 186 3,800 -450 Descending Miami Center
Mon 11:37:12 PM 27.7047 -80.4500 North 167 192 3,300 -273 Descending Miami Center
Mon 11:39:09 PM 27.8000 -80.4333 North 154 177 3,000 -98 Descending Orlando TRACON
Mon 11:40:15 PM 27.8500 -80.4500 344° North 156 180 3,000 -48 Level Orlando TRACON
Mon 11:41:15 PM 27.8833 -80.4500 360° North 123 142 2,900 -53 Descending Orlando TRACON
Mon 11:42:09 PM 27.9167 -80.4500 360° North 119 137 2,900  Level Orlando TRACON
Mon 11:43:09 PM 27.9500 -80.4667 336° Northwest 118 136 2,900  Level Orlando TRACON
Mon 11:44:10 PM 27.9833 -80.4667 360° North 130 150 2,900 50 Level Orlando TRACON
Mon 11:45:10 PM 28.0167 -80.4667 360° North 132 152 3,000 50 Climbing Orlando TRACON
Mon 11:46:10 PM 28.0500 -80.4500 24° Northeast 137 158 3,000 -48 Level Orlando TRACON
Mon 11:47:16 PM 28.0667 -80.4000 69° East 136 157 2,900 -190 Descending Orlando TRACON
Mon 11:48:16 PM 28.1000 -80.4000 360° North 135 155 2,600 -368 Descending Orlando TRACON
Mon 11:49:10 PM 28.1167 -80.4333 300° West 129 148 2,200 -421 Descending Orlando TRACON
Mon 11:50:10 PM 28.1167 -80.4667 270° West 117 135 1,800 -300 Descending Orlando TRACON
Mon 11:51:10 PM 28.1167 -80.5000 270° West 111 128 1,600 -150 Descending Orlando TRACON
Mon 11:52:10 PM 28.1000 -80.5333 240° Southwest 98 113 1,500 -100 Descending Orlando TRACON
Mon 11:53:10 PM 28.1000 -80.5667 270° West 88 101 1,400 -300 Descending Orlando TRACON
Mon 11:54:10 PM 28.1000 -80.5833 270° West 89 102 900 -500 Descending Orlando TRACON
Mon 11:55:10 PM 28.1000 -80.6167 270° West 83 96 400 -500 Descending Orlando TRACON

Login

Don't have an account? Register now (free) for customized features, flight alerts, and more!